sensor_id;sensor_type;location;lat;lon;timestamp;pressure;altitude;pressure_sealevel;temperature;humidity
55757;BME280;41676;44.610;44.078;2023-11-21T00:04:51;99207.94;;;5.96;100.00
55757;BME280;41676;44.610;44.078;2023-11-21T00:09:52;99237.44;;;6.08;100.00
55757;BME280;41676;44.610;44.078;2023-11-21T00:14:56;99228.84;;;5.98;100.00
55757;BME280;41676;44.610;44.078;2023-11-21T00:19:57;99165.75;;;5.63;100.00
55757;BME280;41676;44.610;44.078;2023-11-21T00:24:57;99217.78;;;5.86;100.00
55757;BME280;41676;44.610;44.078;2023-11-21T00:29:58;99214.19;;;5.87;100.00
55757;BME280;41676;44.610;44.078;2023-11-21T00:34:59;99171.69;;;5.57;100.00
55757;BME280;41676;44.610;44.078;2023-11-21T00:40:00;99227.00;;;5.82;100.00
55757;BME280;41676;44.610;44.078;2023-11-21T00:45:06;99180.72;;;5.46;100.00
55757;BME280;41676;44.610;44.078;2023-11-21T00:50:07;99226.53;;;5.78;100.00
55757;BME280;41676;44.610;44.078;2023-11-21T00:55:09;99232.75;;;5.77;100.00
55757;BME280;41676;44.610;44.078;2023-11-21T01:00:10;99171.66;;;5.41;100.00
55757;BME280;41676;44.610;44.078;2023-11-21T01:05:17;99229.50;;;5.75;100.00
55757;BME280;41676;44.610;44.078;2023-11-21T01:10:18;99228.81;;;5.73;100.00
55757;BME280;41676;44.610;44.078;2023-11-21T01:15:19;99175.78;;;5.27;100.00
55757;BME280;41676;44.610;44.078;2023-11-21T01:20:20;99216.63;;;5.47;100.00
55757;BME280;41676;44.610;44.078;2023-11-21T01:25:20;99244.31;;;5.60;100.00
55757;BME280;41676;44.610;44.078;2023-11-21T01:30:21;99211.50;;;5.46;100.00
55757;BME280;41676;44.610;44.078;2023-11-21T01:35:22;99248.25;;;5.64;100.00
55757;BME280;41676;44.610;44.078;2023-11-21T01:40:23;99263.38;;;5.62;100.00
55757;BME280;41676;44.610;44.078;2023-11-21T01:45:24;99265.38;;;5.60;100.00
55757;BME280;41676;44.610;44.078;2023-11-21T01:50:25;99263.41;;;5.54;100.00
55757;BME280;41676;44.610;44.078;2023-11-21T01:55:27;99270.59;;;5.43;100.00
55757;BME280;41676;44.610;44.078;2023-11-21T02:00:28;99289.06;;;5.52;100.00
55757;BME280;41676;44.610;44.078;2023-11-21T02:05:31;99282.81;;;5.44;100.00
55757;BME280;41676;44.610;44.078;2023-11-21T02:10:32;99290.88;;;5.51;100.00
55757;BME280;41676;44.610;44.078;2023-11-21T02:15:33;99311.00;;;5.60;100.00
55757;BME280;41676;44.610;44.078;2023-11-21T02:20:34;99314.13;;;5.64;100.00
55757;BME280;41676;44.610;44.078;2023-11-21T02:25:37;99325.66;;;5.63;100.00
55757;BME280;41676;44.610;44.078;2023-11-21T02:30:38;99272.72;;;5.32;100.00
55757;BME280;41676;44.610;44.078;2023-11-21T02:35:39;99324.81;;;5.62;100.00
55757;BME280;41676;44.610;44.078;2023-11-21T02:40:40;99333.34;;;5.56;100.00
55757;BME280;41676;44.610;44.078;2023-11-21T02:45:41;99333.63;;;5.37;100.00
55757;BME280;41676;44.610;44.078;2023-11-21T02:50:42;99338.31;;;5.17;100.00
55757;BME280;41676;44.610;44.078;2023-11-21T02:55:43;99360.13;;;5.01;100.00
55757;BME280;41676;44.610;44.078;2023-11-21T03:00:44;99348.66;;;4.84;100.00
55757;BME280;41676;44.610;44.078;2023-11-21T03:05:45;99367.38;;;4.73;99.97
55757;BME280;41676;44.610;44.078;2023-11-21T03:10:46;99374.16;;;4.57;100.00
55757;BME280;41676;44.610;44.078;2023-11-21T03:15:46;99371.47;;;4.49;100.00
55757;BME280;41676;44.610;44.078;2023-11-21T03:20:48;99377.19;;;4.45;100.00
55757;BME280;41676;44.610;44.078;2023-11-21T03:25:48;99380.81;;;4.26;100.00
55757;BME280;41676;44.610;44.078;2023-11-21T03:30:49;99370.59;;;4.23;100.00
55757;BME280;41676;44.610;44.078;2023-11-21T03:35:50;99387.41;;;4.30;99.97
55757;BME280;41676;44.610;44.078;2023-11-21T03:40:51;99394.84;;;4.34;100.00
55757;BME280;41676;44.610;44.078;2023-11-21T03:45:51;99313.00;;;3.76;99.59
55757;BME280;41676;44.610;44.078;2023-11-21T03:50:52;99415.41;;;4.39;99.96
55757;BME280;41676;44.610;44.078;2023-11-21T03:55:53;99415.72;;;4.36;100.00
55757;BME280;41676;44.610;44.078;2023-11-21T04:00:54;99409.81;;;4.34;100.00
55757;BME280;41676;44.610;44.078;2023-11-21T04:05:54;99429.34;;;4.49;100.00
55757;BME280;41676;44.610;44.078;2023-11-21T04:10:55;99438.44;;;4.55;99.97
55757;BME280;41676;44.610;44.078;2023-11-21T04:15:56;99441.72;;;4.57;100.00
55757;BME280;41676;44.610;44.078;2023-11-21T04:20:57;99443.72;;;4.63;99.88
55757;BME280;41676;44.610;44.078;2023-11-21T04:25:58;99431.34;;;4.55;99.32
55757;BME280;41676;44.610;44.078;2023-11-21T04:30:59;99410.03;;;4.41;98.85
55757;BME280;41676;44.610;44.078;2023-11-21T04:36:00;99450.66;;;4.64;99.19
55757;BME280;41676;44.610;44.078;2023-11-21T04:41:00;99468.53;;;4.78;99.46
55757;BME280;41676;44.610;44.078;2023-11-21T04:46:01;99462.91;;;4.73;99.24
55757;BME280;41676;44.610;44.078;2023-11-21T04:51:03;99409.56;;;4.45;99.44
55757;BME280;41676;44.610;44.078;2023-11-21T04:56:05;99482.94;;;4.92;99.04
55757;BME280;41676;44.610;44.078;2023-11-21T05:01:07;99432.00;;;4.57;99.11
55757;BME280;41676;44.610;44.078;2023-11-21T05:06:11;99462.00;;;4.83;98.94
55757;BME280;41676;44.610;44.078;2023-11-21T05:11:12;99480.19;;;4.94;99.25
55757;BME280;41676;44.610;44.078;2023-11-21T05:16:12;99492.75;;;5.08;99.08
55757;BME280;41676;44.610;44.078;2023-11-21T05:21:14;99447.63;;;4.77;98.95
55757;BME280;41676;44.610;44.078;2023-11-21T05:26:15;99431.63;;;4.70;99.18
55757;BME280;41676;44.610;44.078;2023-11-21T05:31:16;99506.50;;;5.20;98.30
55757;BME280;41676;44.610;44.078;2023-11-21T05:36:17;99505.38;;;5.22;98.11
55757;BME280;41676;44.610;44.078;2023-11-21T05:41:17;99487.38;;;5.10;98.45
55757;BME280;41676;44.610;44.078;2023-11-21T05:46:18;99520.75;;;5.35;98.21
55757;BME280;41676;44.610;44.078;2023-11-21T05:51:19;99517.16;;;5.36;98.26
55757;BME280;41676;44.610;44.078;2023-11-21T05:56:20;99522.50;;;5.44;97.32
55757;BME280;41676;44.610;44.078;2023-11-21T06:01:20;99461.03;;;5.10;97.96
55757;BME280;41676;44.610;44.078;2023-11-21T06:06:21;99528.47;;;5.55;97.58
55757;BME280;41676;44.610;44.078;2023-11-21T06:11:26;99519.31;;;5.67;97.16
55757;BME280;41676;44.610;44.078;2023-11-21T06:16:27;99519.00;;;5.70;97.25
55757;BME280;41676;44.610;44.078;2023-11-21T06:21:28;99531.41;;;5.78;95.92
55757;BME280;41676;44.610;44.078;2023-11-21T06:26:29;99536.25;;;5.90;96.09
55757;BME280;41676;44.610;44.078;2023-11-21T06:31:30;99531.38;;;5.96;96.13
55757;BME280;41676;44.610;44.078;2023-11-21T06:36:30;99506.19;;;5.75;95.82
55757;BME280;41676;44.610;44.078;2023-11-21T06:41:31;99553.81;;;6.08;95.63
55757;BME280;41676;44.610;44.078;2023-11-21T06:46:32;99552.38;;;6.13;95.18
55757;BME280;41676;44.610;44.078;2023-11-21T06:51:33;99547.00;;;6.31;94.69
55757;BME280;41676;44.610;44.078;2023-11-21T06:56:34;99547.00;;;6.31;93.14
55757;BME280;41676;44.610;44.078;2023-11-21T07:01:36;99542.03;;;6.28;93.21
55757;BME280;41676;44.610;44.078;2023-11-21T07:06:39;99529.78;;;6.11;92.38
55757;BME280;41676;44.610;44.078;2023-11-21T07:11:40;99554.19;;;6.21;90.89
55757;BME280;41676;44.610;44.078;2023-11-21T07:16:41;99558.50;;;6.30;92.04
55757;BME280;41676;44.610;44.078;2023-11-21T07:21:41;99553.91;;;6.32;90.07
55757;BME280;41676;44.610;44.078;2023-11-21T07:26:42;99443.94;;;5.82;88.02
55757;BME280;41676;44.610;44.078;2023-11-21T07:31:43;99546.72;;;6.59;86.50
55757;BME280;41676;44.610;44.078;2023-11-21T07:36:44;99518.03;;;6.72;84.92
55757;BME280;41676;44.610;44.078;2023-11-21T07:41:44;99440.63;;;6.31;84.01
55757;BME280;41676;44.610;44.078;2023-11-21T07:46:48;99536.22;;;6.92;82.28
55757;BME280;41676;44.610;44.078;2023-11-21T07:51:50;99526.16;;;7.03;81.33
55757;BME280;41676;44.610;44.078;2023-11-21T07:56:51;99510.28;;;7.12;80.30
55757;BME280;41676;44.610;44.078;2023-11-21T08:01:52;99527.63;;;7.22;77.68
55757;BME280;41676;44.610;44.078;2023-11-21T08:06:53;99528.94;;;7.26;77.16
55757;BME280;41676;44.610;44.078;2023-11-21T08:11:54;99538.34;;;7.29;77.34
55757;BME280;41676;44.610;44.078;2023-11-21T08:16:54;99489.31;;;7.26;76.09
55757;BME280;41676;44.610;44.078;2023-11-21T08:21:57;99505.09;;;7.59;74.86
55757;BME280;41676;44.610;44.078;2023-11-21T08:26:59;99467.22;;;7.19;75.48
55757;BME280;41676;44.610;44.078;2023-11-21T08:32:00;99542.47;;;6.99;77.13
55757;BME280;41676;44.610;44.078;2023-11-21T08:37:01;99557.81;;;6.87;77.14
55757;BME280;41676;44.610;44.078;2023-11-21T08:42:02;99551.25;;;6.91;76.52
55757;BME280;41676;44.610;44.078;2023-11-21T08:47:03;99533.25;;;6.86;75.42
55757;BME280;41676;44.610;44.078;2023-11-21T08:52:05;99536.53;;;7.05;75.54
55757;BME280;41676;44.610;44.078;2023-11-21T08:57:07;99555.53;;;7.00;74.72
55757;BME280;41676;44.610;44.078;2023-11-21T09:02:07;99548.75;;;6.98;74.83
55757;BME280;41676;44.610;44.078;2023-11-21T09:07:08;99538.84;;;6.92;73.97
55757;BME280;41676;44.610;44.078;2023-11-21T09:12:10;99546.09;;;6.73;74.04
55757;BME280;41676;44.610;44.078;2023-11-21T09:17:13;99558.25;;;6.50;75.32
55757;BME280;41676;44.610;44.078;2023-11-21T09:22:14;99558.16;;;6.17;75.77
55757;BME280;41676;44.610;44.078;2023-11-21T09:27:15;99569.69;;;6.24;73.83
55757;BME280;41676;44.610;44.078;2023-11-21T09:32:17;99572.59;;;6.47;73.10
55757;BME280;41676;44.610;44.078;2023-11-21T09:37:19;99537.44;;;6.38;73.90
55757;BME280;41676;44.610;44.078;2023-11-21T09:42:25;99556.91;;;6.37;74.72
55757;BME280;41676;44.610;44.078;2023-11-21T09:47:29;99546.13;;;6.31;75.59
55757;BME280;41676;44.610;44.078;2023-11-21T09:52:31;99559.00;;;6.34;74.78
55757;BME280;41676;44.610;44.078;2023-11-21T09:57:33;99506.25;;;5.91;74.76
55757;BME280;41676;44.610;44.078;2023-11-21T10:02:34;99490.31;;;5.93;75.29
55757;BME280;41676;44.610;44.078;2023-11-21T10:07:36;99562.75;;;6.15;75.47
55757;BME280;41676;44.610;44.078;2023-11-21T10:12:40;99564.47;;;5.98;76.21
55757;BME280;41676;44.610;44.078;2023-11-21T10:17:43;99546.75;;;5.82;77.15
55757;BME280;41676;44.610;44.078;2023-11-21T10:22:45;99583.41;;;5.93;77.61
55757;BME280;41676;44.610;44.078;2023-11-21T10:27:47;99532.84;;;5.72;77.88
55757;BME280;41676;44.610;44.078;2023-11-21T10:32:50;99584.16;;;6.12;76.84
55757;BME280;41676;44.610;44.078;2023-11-21T10:38:02;99550.50;;;5.80;77.39
55757;BME280;41676;44.610;44.078;2023-11-21T10:43:07;99609.69;;;6.11;78.83
55757;BME280;41676;44.610;44.078;2023-11-21T10:48:13;99592.34;;;6.01;79.10
55757;BME280;41676;44.610;44.078;2023-11-21T10:53:17;99587.53;;;6.30;77.89
55757;BME280;41676;44.610;44.078;2023-11-21T10:58:19;99585.25;;;6.35;77.07
55757;BME280;41676;44.610;44.078;2023-11-21T11:03:20;99576.19;;;5.96;77.76
55757;BME280;41676;44.610;44.078;2023-11-21T11:08:23;99614.09;;;6.03;79.16
55757;BME280;41676;44.610;44.078;2023-11-21T11:13:26;99632.88;;;6.00;79.81
55757;BME280;41676;44.610;44.078;2023-11-21T11:18:30;99616.88;;;5.75;78.78
55757;BME280;41676;44.610;44.078;2023-11-21T11:23:54;99540.44;;;5.05;78.88
55757;BME280;41676;44.610;44.078;2023-11-21T11:29:30;99640.66;;;5.39;78.17
55757;BME280;41676;44.610;44.078;2023-11-21T11:35:01;99646.13;;;5.28;79.86
55757;BME280;41676;44.610;44.078;2023-11-21T11:40:07;99635.47;;;5.12;80.87
55757;BME280;41676;44.610;44.078;2023-11-21T11:45:17;99651.78;;;4.97;81.58
55757;BME280;41676;44.610;44.078;2023-11-21T11:50:21;99668.81;;;4.93;81.53
55757;BME280;41676;44.610;44.078;2023-11-21T11:55:23;99618.41;;;4.52;82.54
55757;BME280;41676;44.610;44.078;2023-11-21T12:05:34;99632.31;;;4.35;83.57
55757;BME280;41676;44.610;44.078;2023-11-21T12:10:39;99707.50;;;4.65;84.23
55757;BME280;41676;44.610;44.078;2023-11-21T12:15:40;99648.28;;;4.24;84.50
55757;BME280;41676;44.610;44.078;2023-11-21T12:20:41;99660.31;;;4.26;84.62
55757;BME280;41676;44.610;44.078;2023-11-21T12:25:43;99678.88;;;4.25;84.29
55757;BME280;41676;44.610;44.078;2023-11-21T12:30:44;99725.72;;;4.39;85.07
55757;BME280;41676;44.610;44.078;2023-11-21T12:35:45;99710.59;;;4.14;85.25
55757;BME280;41676;44.610;44.078;2023-11-21T12:40:47;99765.59;;;4.34;85.25
55757;BME280;41676;44.610;44.078;2023-11-21T12:45:47;99716.28;;;3.99;85.38
55757;BME280;41676;44.610;44.078;2023-11-21T12:50:48;99764.38;;;4.29;85.90
55757;BME280;41676;44.610;44.078;2023-11-21T12:55:55;99785.41;;;4.29;86.53
55757;BME280;41676;44.610;44.078;2023-11-21T13:00:59;99793.41;;;4.27;85.99
55757;BME280;41676;44.610;44.078;2023-11-21T13:06:00;99809.75;;;4.31;86.63
55757;BME280;41676;44.610;44.078;2023-11-21T13:11:01;99808.81;;;4.22;87.02
55757;BME280;41676;44.610;44.078;2023-11-21T13:16:03;99829.81;;;4.32;86.75
55757;BME280;41676;44.610;44.078;2023-11-21T13:21:08;99823.19;;;4.28;86.86
55757;BME280;41676;44.610;44.078;2023-11-21T13:26:17;99786.16;;;3.92;87.45
55757;BME280;41676;44.610;44.078;2023-11-21T13:31:21;99844.63;;;4.23;87.25
55757;BME280;41676;44.610;44.078;2023-11-21T13:36:24;99850.47;;;4.07;87.30
55757;BME280;41676;44.610;44.078;2023-11-21T13:41:25;99811.28;;;3.85;87.09
55757;BME280;41676;44.610;44.078;2023-11-21T13:46:31;99881.56;;;4.12;87.83
55757;BME280;41676;44.610;44.078;2023-11-21T13:51:37;99872.59;;;3.95;88.24
55757;BME280;41676;44.610;44.078;2023-11-21T13:56:46;99898.88;;;4.15;88.61
55757;BME280;41676;44.610;44.078;2023-11-21T14:01:47;99912.28;;;4.11;88.60
55757;BME280;41676;44.610;44.078;2023-11-21T14:06:53;99904.13;;;4.15;88.94
55757;BME280;41676;44.610;44.078;2023-11-21T14:11:56;99920.59;;;4.17;89.40
55757;BME280;41676;44.610;44.078;2023-11-21T14:16:57;99916.44;;;4.14;88.74
55757;BME280;41676;44.610;44.078;2023-11-21T14:21:59;99929.75;;;4.22;88.54
55757;BME280;41676;44.610;44.078;2023-11-21T14:27:01;99847.91;;;3.67;88.19
55757;BME280;41676;44.610;44.078;2023-11-21T14:32:02;99886.66;;;3.84;87.74
55757;BME280;41676;44.610;44.078;2023-11-21T14:37:03;99942.19;;;4.20;87.78
55757;BME280;41676;44.610;44.078;2023-11-21T14:42:04;99878.91;;;3.73;87.62
55757;BME280;41676;44.610;44.078;2023-11-21T14:47:07;99955.31;;;4.10;87.51
55757;BME280;41676;44.610;44.078;2023-11-21T14:52:15;99969.84;;;4.15;87.63
55757;BME280;41676;44.610;44.078;2023-11-21T14:57:34;99978.84;;;4.12;87.10
55757;BME280;41676;44.610;44.078;2023-11-21T15:02:36;99985.16;;;4.00;86.76
55757;BME280;41676;44.610;44.078;2023-11-21T15:07:52;99980.97;;;3.78;87.23
55757;BME280;41676;44.610;44.078;2023-11-21T15:12:56;99992.56;;;3.75;87.09
55757;BME280;41676;44.610;44.078;2023-11-21T15:17:58;99975.56;;;3.39;87.04
55757;BME280;41676;44.610;44.078;2023-11-21T15:22:59;99949.72;;;3.13;87.66
55757;BME280;41676;44.610;44.078;2023-11-21T15:28:01;100000.09;;;3.28;87.77
55757;BME280;41676;44.610;44.078;2023-11-21T15:33:02;100029.47;;;3.43;87.37
55757;BME280;41676;44.610;44.078;2023-11-21T15:38:04;100031.91;;;3.35;87.37
55757;BME280;41676;44.610;44.078;2023-11-21T15:43:04;99988.25;;;2.92;87.64
55757;BME280;41676;44.610;44.078;2023-11-21T15:48:07;100040.38;;;3.17;87.65
55757;BME280;41676;44.610;44.078;2023-11-21T15:53:10;100031.59;;;3.07;87.26
55757;BME280;41676;44.610;44.078;2023-11-21T15:58:11;100044.72;;;3.07;85.92
55757;BME280;41676;44.610;44.078;2023-11-21T16:03:12;100064.31;;;3.03;85.97
55757;BME280;41676;44.610;44.078;2023-11-21T16:08:14;100062.28;;;2.95;86.10
55757;BME280;41676;44.610;44.078;2023-11-21T16:13:14;100061.16;;;2.88;86.13
55757;BME280;41676;44.610;44.078;2023-11-21T16:18:15;100060.34;;;2.77;86.87
55757;BME280;41676;44.610;44.078;2023-11-21T16:23:16;100034.56;;;2.49;86.58
55757;BME280;41676;44.610;44.078;2023-11-21T16:28:17;100096.59;;;2.71;86.94
55757;BME280;41676;44.610;44.078;2023-11-21T16:33:18;100103.31;;;2.64;86.94
55757;BME280;41676;44.610;44.078;2023-11-21T16:38:20;100102.84;;;2.59;87.31
55757;BME280;41676;44.610;44.078;2023-11-21T16:43:20;100102.16;;;2.46;87.46
55757;BME280;41676;44.610;44.078;2023-11-21T16:48:21;100121.19;;;2.48;87.70
55757;BME280;41676;44.610;44.078;2023-11-21T16:53:22;100118.81;;;2.45;87.79
55757;BME280;41676;44.610;44.078;2023-11-21T16:58:23;100118.88;;;2.34;88.12
55757;BME280;41676;44.610;44.078;2023-11-21T17:03:24;100125.75;;;2.35;88.15
55757;BME280;41676;44.610;44.078;2023-11-21T17:08:26;100115.75;;;2.28;88.26
55757;BME280;41676;44.610;44.078;2023-11-21T17:13:28;100093.88;;;2.07;88.08
55757;BME280;41676;44.610;44.078;2023-11-21T17:18:29;100139.84;;;2.34;88.66
55757;BME280;41676;44.610;44.078;2023-11-21T17:23:31;100136.13;;;2.25;88.64
55757;BME280;41676;44.610;44.078;2023-11-21T17:28:31;100148.88;;;2.29;88.19
55757;BME280;41676;44.610;44.078;2023-11-21T17:33:32;100158.53;;;2.29;89.09
55757;BME280;41676;44.610;44.078;2023-11-21T17:38:33;100155.66;;;2.21;89.26
55757;BME280;41676;44.610;44.078;2023-11-21T17:43:34;100168.53;;;2.24;88.99
55757;BME280;41676;44.610;44.078;2023-11-21T17:48:39;100168.41;;;2.25;89.16
55757;BME280;41676;44.610;44.078;2023-11-21T17:53:42;100174.50;;;2.26;89.65
55757;BME280;41676;44.610;44.078;2023-11-21T17:58:44;100168.66;;;2.22;89.68
55757;BME280;41676;44.610;44.078;2023-11-21T18:03:45;100177.47;;;2.21;89.60
55757;BME280;41676;44.610;44.078;2023-11-21T18:08:46;100179.63;;;2.16;90.22
55757;BME280;41676;44.610;44.078;2023-11-21T18:13:47;100183.16;;;2.15;90.12
55757;BME280;41676;44.610;44.078;2023-11-21T18:18:48;100195.94;;;2.20;90.39
55757;BME280;41676;44.610;44.078;2023-11-21T18:23:50;100143.28;;;2.12;90.69
55757;BME280;41676;44.610;44.078;2023-11-21T18:28:51;100118.50;;;1.93;90.59
55757;BME280;41676;44.610;44.078;2023-11-21T18:33:53;100170.22;;;2.25;91.09
55757;BME280;41676;44.610;44.078;2023-11-21T18:38:54;100181.16;;;2.30;91.17
55757;BME280;41676;44.610;44.078;2023-11-21T18:43:54;100172.47;;;2.41;91.14
55757;BME280;41676;44.610;44.078;2023-11-21T18:48:55;100177.13;;;2.48;91.59
55757;BME280;41676;44.610;44.078;2023-11-21T18:53:56;100186.28;;;2.54;91.90
55757;BME280;41676;44.610;44.078;2023-11-21T18:58:57;100191.16;;;2.59;92.16
55757;BME280;41676;44.610;44.078;2023-11-21T19:03:58;100176.16;;;2.49;91.98
55757;BME280;41676;44.610;44.078;2023-11-21T19:08:59;100202.50;;;2.59;92.27
55757;BME280;41676;44.610;44.078;2023-11-21T19:14:00;100147.56;;;2.24;92.80
55757;BME280;41676;44.610;44.078;2023-11-21T19:19:01;100205.50;;;2.55;92.99
55757;BME280;41676;44.610;44.078;2023-11-21T19:24:02;100212.63;;;2.53;93.85
55757;BME280;41676;44.610;44.078;2023-11-21T19:29:03;100151.25;;;2.21;93.43
55757;BME280;41676;44.610;44.078;2023-11-21T19:34:05;100195.22;;;2.40;93.62
55757;BME280;41676;44.610;44.078;2023-11-21T19:39:06;100194.66;;;2.37;94.19
55757;BME280;41676;44.610;44.078;2023-11-21T19:44:07;100203.56;;;2.34;94.48
55757;BME280;41676;44.610;44.078;2023-11-21T19:49:09;100213.34;;;2.55;94.16
55757;BME280;41676;44.610;44.078;2023-11-21T19:54:10;100204.41;;;2.46;94.24
55757;BME280;41676;44.610;44.078;2023-11-21T19:59:11;100221.94;;;2.45;94.51
55757;BME280;41676;44.610;44.078;2023-11-21T20:04:11;100158.88;;;2.02;94.04
55757;BME280;41676;44.610;44.078;2023-11-21T20:09:12;100185.81;;;2.26;94.37
55757;BME280;41676;44.610;44.078;2023-11-21T20:14:14;100192.59;;;2.29;93.97
55757;BME280;41676;44.610;44.078;2023-11-21T20:19:17;100226.09;;;2.70;93.62
55757;BME280;41676;44.610;44.078;2023-11-21T20:24:18;100239.31;;;2.91;93.13
55757;BME280;41676;44.610;44.078;2023-11-21T20:29:19;100236.44;;;3.06;92.80
55757;BME280;41676;44.610;44.078;2023-11-21T20:34:19;100192.91;;;2.81;91.90
55757;BME280;41676;44.610;44.078;2023-11-21T20:39:20;100243.19;;;3.19;92.17
55757;BME280;41676;44.610;44.078;2023-11-21T20:44:21;100259.16;;;3.28;92.12
55757;BME280;41676;44.610;44.078;2023-11-21T20:49:22;100259.63;;;3.33;91.78
55757;BME280;41676;44.610;44.078;2023-11-21T20:54:23;100241.75;;;3.27;92.14
55757;BME280;41676;44.610;44.078;2023-11-21T20:59:23;100266.03;;;3.40;91.62
55757;BME280;41676;44.610;44.078;2023-11-21T21:04:24;100254.72;;;3.39;91.18
55757;BME280;41676;44.610;44.078;2023-11-21T21:09:25;100272.13;;;3.40;91.70
55757;BME280;41676;44.610;44.078;2023-11-21T21:14:26;100279.91;;;3.42;91.24
55757;BME280;41676;44.610;44.078;2023-11-21T21:19:29;100263.91;;;3.34;91.09
55757;BME280;41676;44.610;44.078;2023-11-21T21:24:30;100291.94;;;3.45;91.45
55757;BME280;41676;44.610;44.078;2023-11-21T21:29:31;100286.56;;;3.46;90.71
55757;BME280;41676;44.610;44.078;2023-11-21T21:34:31;100292.53;;;3.48;91.19
55757;BME280;41676;44.610;44.078;2023-11-21T21:39:33;100285.47;;;3.49;90.67
55757;BME280;41676;44.610;44.078;2023-11-21T21:44:34;100192.31;;;2.88;90.26
55757;BME280;41676;44.610;44.078;2023-11-21T21:49:34;100299.00;;;3.44;89.97
55757;BME280;41676;44.610;44.078;2023-11-21T21:54:35;100301.50;;;3.46;89.71
55757;BME280;41676;44.610;44.078;2023-11-21T21:59:36;100290.06;;;3.35;90.00
55757;BME280;41676;44.610;44.078;2023-11-21T22:04:38;100267.44;;;3.12;89.23
55757;BME280;41676;44.610;44.078;2023-11-21T22:09:40;100328.34;;;3.38;89.80
55757;BME280;41676;44.610;44.078;2023-11-21T22:14:40;100332.06;;;3.35;89.88
55757;BME280;41676;44.610;44.078;2023-11-21T22:19:41;100326.22;;;3.32;89.75
55757;BME280;41676;44.610;44.078;2023-11-21T22:24:42;100329.47;;;3.24;89.86
55757;BME280;41676;44.610;44.078;2023-11-21T22:29:43;100343.66;;;3.10;90.79
55757;BME280;41676;44.610;44.078;2023-11-21T22:34:43;100357.25;;;3.04;90.91
55757;BME280;41676;44.610;44.078;2023-11-21T22:39:44;100351.41;;;3.01;91.07
55757;BME280;41676;44.610;44.078;2023-11-21T22:44:46;100350.34;;;3.03;91.67
55757;BME280;41676;44.610;44.078;2023-11-21T22:49:47;100342.47;;;3.03;91.41
55757;BME280;41676;44.610;44.078;2023-11-21T22:54:48;100347.25;;;2.98;91.36
55757;BME280;41676;44.610;44.078;2023-11-21T22:59:49;100285.09;;;2.42;91.83
55757;BME280;41676;44.610;44.078;2023-11-21T23:04:52;100349.63;;;2.79;91.82
55757;BME280;41676;44.610;44.078;2023-11-21T23:09:53;100360.47;;;2.85;91.53
55757;BME280;41676;44.610;44.078;2023-11-21T23:14:54;100359.28;;;2.89;91.09
55757;BME280;41676;44.610;44.078;2023-11-21T23:19:55;100358.44;;;2.89;90.96
55757;BME280;41676;44.610;44.078;2023-11-21T23:24:56;100369.66;;;2.91;90.95
55757;BME280;41676;44.610;44.078;2023-11-21T23:29:56;100389.22;;;2.98;91.54
55757;BME280;41676;44.610;44.078;2023-11-21T23:34:57;100396.13;;;2.99;91.41
55757;BME280;41676;44.610;44.078;2023-11-21T23:39:58;100395.31;;;2.98;91.89
55757;BME280;41676;44.610;44.078;2023-11-21T23:45:00;100382.41;;;2.95;91.31
55757;BME280;41676;44.610;44.078;2023-11-21T23:50:01;100392.09;;;2.95;91.36
55757;BME280;41676;44.610;44.078;2023-11-21T23:55:04;100387.06;;;2.92;91.17
